sensor_id;sensor_type;location;lat;lon;timestamp;temperature;humidity
47482;DHT22;33219;47.410;9.730;2023-07-22T00:01:20;15.20;99.90
47482;DHT22;33219;47.410;9.730;2023-07-22T00:03:48;15.20;99.90
47482;DHT22;33219;47.410;9.730;2023-07-22T00:06:15;15.20;99.90
47482;DHT22;33219;47.410;9.730;2023-07-22T00:08:42;15.20;99.90
47482;DHT22;33219;47.410;9.730;2023-07-22T00:11:10;15.20;99.90
47482;DHT22;33219;47.410;9.730;2023-07-22T00:13:38;15.20;99.90
47482;DHT22;33219;47.410;9.730;2023-07-22T00:16:06;15.10;99.90
47482;DHT22;33219;47.410;9.730;2023-07-22T00:18:34;15.10;99.90
47482;DHT22;33219;47.410;9.730;2023-07-22T00:21:03;15.10;99.90
47482;DHT22;33219;47.410;9.730;2023-07-22T00:23:30;15.00;99.90
47482;DHT22;33219;47.410;9.730;2023-07-22T00:25:58;15.00;99.90
47482;DHT22;33219;47.410;9.730;2023-07-22T00:28:25;15.00;99.90
47482;DHT22;33219;47.410;9.730;2023-07-22T00:30:53;15.00;99.90
47482;DHT22;33219;47.410;9.730;2023-07-22T00:33:20;15.00;99.90
47482;DHT22;33219;47.410;9.730;2023-07-22T00:35:49;14.90;99.90
47482;DHT22;33219;47.410;9.730;2023-07-22T00:38:20;14.90;99.90
47482;DHT22;33219;47.410;9.730;2023-07-22T00:40:48;15.00;99.90
47482;DHT22;33219;47.410;9.730;2023-07-22T00:43:15;15.00;99.90
47482;DHT22;33219;47.410;9.730;2023-07-22T00:45:43;14.90;99.90
47482;DHT22;33219;47.410;9.730;2023-07-22T00:48:11;14.90;99.90
47482;DHT22;33219;47.410;9.730;2023-07-22T00:50:40;14.80;99.90
47482;DHT22;33219;47.410;9.730;2023-07-22T00:53:08;14.80;99.90
47482;DHT22;33219;47.410;9.730;2023-07-22T00:55:38;14.80;99.90
47482;DHT22;33219;47.410;9.730;2023-07-22T00:58:07;14.70;99.90
47482;DHT22;33219;47.410;9.730;2023-07-22T01:00:35;14.70;99.90
47482;DHT22;33219;47.410;9.730;2023-07-22T01:03:02;14.70;99.90
47482;DHT22;33219;47.410;9.730;2023-07-22T01:05:31;14.70;99.90
47482;DHT22;33219;47.410;9.730;2023-07-22T01:07:59;14.70;99.90
47482;DHT22;33219;47.410;9.730;2023-07-22T01:10:26;14.70;99.90
47482;DHT22;33219;47.410;9.730;2023-07-22T01:12:55;14.60;99.90
47482;DHT22;33219;47.410;9.730;2023-07-22T01:15:24;14.60;99.90
47482;DHT22;33219;47.410;9.730;2023-07-22T01:17:52;14.50;99.90
47482;DHT22;33219;47.410;9.730;2023-07-22T01:20:21;14.50;99.90
47482;DHT22;33219;47.410;9.730;2023-07-22T01:22:53;14.40;99.90
47482;DHT22;33219;47.410;9.730;2023-07-22T01:25:22;14.40;99.90
47482;DHT22;33219;47.410;9.730;2023-07-22T01:27:51;14.30;99.90
47482;DHT22;33219;47.410;9.730;2023-07-22T01:30:19;14.40;99.90
47482;DHT22;33219;47.410;9.730;2023-07-22T01:32:49;14.40;99.90
47482;DHT22;33219;47.410;9.730;2023-07-22T01:35:18;14.50;99.90
47482;DHT22;33219;47.410;9.730;2023-07-22T01:37:47;14.50;99.90
47482;DHT22;33219;47.410;9.730;2023-07-22T01:40:15;14.50;99.90
47482;DHT22;33219;47.410;9.730;2023-07-22T01:42:42;14.50;99.90
47482;DHT22;33219;47.410;9.730;2023-07-22T01:45:10;14.50;99.90
47482;DHT22;33219;47.410;9.730;2023-07-22T01:47:39;14.60;99.90
47482;DHT22;33219;47.410;9.730;2023-07-22T01:50:10;14.60;99.90
47482;DHT22;33219;47.410;9.730;2023-07-22T01:52:38;14.70;99.90
47482;DHT22;33219;47.410;9.730;2023-07-22T01:55:06;14.80;99.90
47482;DHT22;33219;47.410;9.730;2023-07-22T01:57:36;14.80;99.90
47482;DHT22;33219;47.410;9.730;2023-07-22T02:00:04;14.90;99.90
47482;DHT22;33219;47.410;9.730;2023-07-22T02:02:31;15.00;99.90
47482;DHT22;33219;47.410;9.730;2023-07-22T02:04:59;14.90;99.90
47482;DHT22;33219;47.410;9.730;2023-07-22T02:07:27;15.00;99.90
47482;DHT22;33219;47.410;9.730;2023-07-22T02:09:55;15.00;99.90
47482;DHT22;33219;47.410;9.730;2023-07-22T02:12:23;15.00;99.90
47482;DHT22;33219;47.410;9.730;2023-07-22T02:14:50;15.10;99.90
47482;DHT22;33219;47.410;9.730;2023-07-22T02:17:18;15.00;99.90
47482;DHT22;33219;47.410;9.730;2023-07-22T02:19:46;15.00;99.90
47482;DHT22;33219;47.410;9.730;2023-07-22T02:22:14;15.00;99.90
47482;DHT22;33219;47.410;9.730;2023-07-22T02:24:41;14.90;99.90
47482;DHT22;33219;47.410;9.730;2023-07-22T02:27:09;14.90;99.90
47482;DHT22;33219;47.410;9.730;2023-07-22T02:29:37;14.90;99.90
47482;DHT22;33219;47.410;9.730;2023-07-22T02:32:04;14.90;99.90
47482;DHT22;33219;47.410;9.730;2023-07-22T02:34:32;14.90;99.90
47482;DHT22;33219;47.410;9.730;2023-07-22T02:37:00;14.90;99.90
47482;DHT22;33219;47.410;9.730;2023-07-22T02:39:28;14.90;99.90
47482;DHT22;33219;47.410;9.730;2023-07-22T02:41:55;14.80;99.90
47482;DHT22;33219;47.410;9.730;2023-07-22T02:44:23;14.70;99.90
47482;DHT22;33219;47.410;9.730;2023-07-22T02:46:50;14.60;99.90
47482;DHT22;33219;47.410;9.730;2023-07-22T02:49:19;14.60;99.90
47482;DHT22;33219;47.410;9.730;2023-07-22T02:51:46;14.60;99.90
47482;DHT22;33219;47.410;9.730;2023-07-22T02:54:14;14.60;99.90
47482;DHT22;33219;47.410;9.730;2023-07-22T02:56:41;14.50;99.90
47482;DHT22;33219;47.410;9.730;2023-07-22T02:59:10;14.50;99.90
47482;DHT22;33219;47.410;9.730;2023-07-22T03:01:38;14.50;99.90
47482;DHT22;33219;47.410;9.730;2023-07-22T03:04:05;14.50;99.90
47482;DHT22;33219;47.410;9.730;2023-07-22T03:06:33;14.50;99.90
47482;DHT22;33219;47.410;9.730;2023-07-22T03:09:01;14.50;99.90
47482;DHT22;33219;47.410;9.730;2023-07-22T03:11:30;14.50;99.90
47482;DHT22;33219;47.410;9.730;2023-07-22T03:13:57;14.50;99.90
47482;DHT22;33219;47.410;9.730;2023-07-22T03:16:26;14.40;99.90
47482;DHT22;33219;47.410;9.730;2023-07-22T03:18:53;14.50;99.90
47482;DHT22;33219;47.410;9.730;2023-07-22T03:21:21;14.50;99.90
47482;DHT22;33219;47.410;9.730;2023-07-22T03:23:49;14.50;99.90
47482;DHT22;33219;47.410;9.730;2023-07-22T03:26:17;14.50;99.90
47482;DHT22;33219;47.410;9.730;2023-07-22T03:28:44;14.50;99.90
47482;DHT22;33219;47.410;9.730;2023-07-22T03:31:12;14.50;99.90
47482;DHT22;33219;47.410;9.730;2023-07-22T03:33:39;14.50;99.90
47482;DHT22;33219;47.410;9.730;2023-07-22T03:36:09;14.40;99.90
47482;DHT22;33219;47.410;9.730;2023-07-22T03:38:36;14.40;99.90
47482;DHT22;33219;47.410;9.730;2023-07-22T03:41:04;14.40;99.90
47482;DHT22;33219;47.410;9.730;2023-07-22T03:43:32;14.40;99.90
47482;DHT22;33219;47.410;9.730;2023-07-22T03:45:59;14.40;99.90
47482;DHT22;33219;47.410;9.730;2023-07-22T03:48:27;14.50;99.90
47482;DHT22;33219;47.410;9.730;2023-07-22T03:50:55;14.40;99.90
47482;DHT22;33219;47.410;9.730;2023-07-22T03:53:22;14.40;99.90
47482;DHT22;33219;47.410;9.730;2023-07-22T03:55:50;14.40;99.90
47482;DHT22;33219;47.410;9.730;2023-07-22T03:58:17;14.40;99.90
47482;DHT22;33219;47.410;9.730;2023-07-22T04:00:49;14.40;99.90
47482;DHT22;33219;47.410;9.730;2023-07-22T04:03:16;14.40;99.90
47482;DHT22;33219;47.410;9.730;2023-07-22T04:05:44;14.40;99.90
47482;DHT22;33219;47.410;9.730;2023-07-22T04:08:11;14.40;99.90
47482;DHT22;33219;47.410;9.730;2023-07-22T04:10:39;14.50;99.90
47482;DHT22;33219;47.410;9.730;2023-07-22T04:13:06;14.50;99.90
47482;DHT22;33219;47.410;9.730;2023-07-22T04:15:34;14.50;99.90
47482;DHT22;33219;47.410;9.730;2023-07-22T04:18:01;14.50;99.90
47482;DHT22;33219;47.410;9.730;2023-07-22T04:20:29;14.50;99.90
47482;DHT22;33219;47.410;9.730;2023-07-22T04:22:57;14.60;99.90
47482;DHT22;33219;47.410;9.730;2023-07-22T04:25:24;14.60;99.90
47482;DHT22;33219;47.410;9.730;2023-07-22T04:27:52;14.50;99.90
47482;DHT22;33219;47.410;9.730;2023-07-22T04:30:19;14.50;99.90
47482;DHT22;33219;47.410;9.730;2023-07-22T04:32:49;14.60;99.90
47482;DHT22;33219;47.410;9.730;2023-07-22T04:35:17;14.70;99.90
47482;DHT22;33219;47.410;9.730;2023-07-22T04:37:45;14.70;99.90
47482;DHT22;33219;47.410;9.730;2023-07-22T04:40:14;14.70;99.90
47482;DHT22;33219;47.410;9.730;2023-07-22T04:42:44;14.70;99.90
47482;DHT22;33219;47.410;9.730;2023-07-22T04:45:12;14.70;99.90
47482;DHT22;33219;47.410;9.730;2023-07-22T04:47:40;14.80;99.90
47482;DHT22;33219;47.410;9.730;2023-07-22T04:50:09;14.80;99.90
47482;DHT22;33219;47.410;9.730;2023-07-22T04:52:37;14.80;99.90
47482;DHT22;33219;47.410;9.730;2023-07-22T04:55:05;14.90;99.90
47482;DHT22;33219;47.410;9.730;2023-07-22T04:57:35;14.80;99.90
47482;DHT22;33219;47.410;9.730;2023-07-22T05:00:03;14.80;99.90
47482;DHT22;33219;47.410;9.730;2023-07-22T05:02:32;14.80;99.90
47482;DHT22;33219;47.410;9.730;2023-07-22T05:04:59;14.90;99.90
47482;DHT22;33219;47.410;9.730;2023-07-22T05:07:27;14.90;99.90
47482;DHT22;33219;47.410;9.730;2023-07-22T05:09:54;14.90;99.90
47482;DHT22;33219;47.410;9.730;2023-07-22T05:12:22;14.90;99.90
47482;DHT22;33219;47.410;9.730;2023-07-22T05:14:50;15.00;99.90
47482;DHT22;33219;47.410;9.730;2023-07-22T05:17:17;15.00;99.90
47482;DHT22;33219;47.410;9.730;2023-07-22T05:19:45;15.10;99.90
47482;DHT22;33219;47.410;9.730;2023-07-22T05:22:14;15.10;99.90
47482;DHT22;33219;47.410;9.730;2023-07-22T05:24:42;15.10;99.90
47482;DHT22;33219;47.410;9.730;2023-07-22T05:27:10;15.20;99.90
47482;DHT22;33219;47.410;9.730;2023-07-22T05:29:37;15.30;99.90
47482;DHT22;33219;47.410;9.730;2023-07-22T05:32:05;15.30;99.90
47482;DHT22;33219;47.410;9.730;2023-07-22T05:34:33;15.60;99.90
47482;DHT22;33219;47.410;9.730;2023-07-22T05:37:01;15.60;99.90
47482;DHT22;33219;47.410;9.730;2023-07-22T05:39:29;15.70;99.90
47482;DHT22;33219;47.410;9.730;2023-07-22T05:41:56;15.60;99.90
47482;DHT22;33219;47.410;9.730;2023-07-22T05:44:24;15.60;99.90
47482;DHT22;33219;47.410;9.730;2023-07-22T05:46:52;15.70;99.90
47482;DHT22;33219;47.410;9.730;2023-07-22T05:49:19;15.60;99.90
47482;DHT22;33219;47.410;9.730;2023-07-22T05:51:47;15.60;99.90
47482;DHT22;33219;47.410;9.730;2023-07-22T05:54:15;15.70;99.90
47482;DHT22;33219;47.410;9.730;2023-07-22T05:56:42;15.80;99.90
47482;DHT22;33219;47.410;9.730;2023-07-22T05:59:10;15.90;99.90
47482;DHT22;33219;47.410;9.730;2023-07-22T06:01:37;16.00;99.90
47482;DHT22;33219;47.410;9.730;2023-07-22T06:04:05;16.00;99.90
47482;DHT22;33219;47.410;9.730;2023-07-22T06:06:33;16.30;99.90
47482;DHT22;33219;47.410;9.730;2023-07-22T06:09:00;16.40;99.90
47482;DHT22;33219;47.410;9.730;2023-07-22T06:11:28;16.60;99.90
47482;DHT22;33219;47.410;9.730;2023-07-22T06:13:56;16.50;99.90
47482;DHT22;33219;47.410;9.730;2023-07-22T06:16:23;16.50;99.90
47482;DHT22;33219;47.410;9.730;2023-07-22T06:18:51;16.40;99.90
47482;DHT22;33219;47.410;9.730;2023-07-22T06:21:18;16.40;99.90
47482;DHT22;33219;47.410;9.730;2023-07-22T06:23:46;16.50;99.90
47482;DHT22;33219;47.410;9.730;2023-07-22T06:26:13;16.40;99.90
47482;DHT22;33219;47.410;9.730;2023-07-22T06:28:41;16.40;99.90
47482;DHT22;33219;47.410;9.730;2023-07-22T06:31:08;16.60;99.90
47482;DHT22;33219;47.410;9.730;2023-07-22T06:33:36;16.60;99.90
47482;DHT22;33219;47.410;9.730;2023-07-22T06:36:04;16.40;99.90
47482;DHT22;33219;47.410;9.730;2023-07-22T06:38:32;16.50;99.90
47482;DHT22;33219;47.410;9.730;2023-07-22T06:40:59;16.50;99.90
47482;DHT22;33219;47.410;9.730;2023-07-22T06:43:27;16.60;99.90
47482;DHT22;33219;47.410;9.730;2023-07-22T06:45:54;16.50;99.90
47482;DHT22;33219;47.410;9.730;2023-07-22T06:48:22;16.60;99.90
47482;DHT22;33219;47.410;9.730;2023-07-22T06:50:50;16.60;99.90
47482;DHT22;33219;47.410;9.730;2023-07-22T06:53:17;16.70;99.90
47482;DHT22;33219;47.410;9.730;2023-07-22T06:55:49;16.70;99.90
47482;DHT22;33219;47.410;9.730;2023-07-22T06:58:18;16.80;99.90
47482;DHT22;33219;47.410;9.730;2023-07-22T07:00:45;17.10;99.90
47482;DHT22;33219;47.410;9.730;2023-07-22T07:03:13;17.70;99.90
47482;DHT22;33219;47.410;9.730;2023-07-22T07:05:40;18.40;99.90
47482;DHT22;33219;47.410;9.730;2023-07-22T07:08:08;18.90;99.90
47482;DHT22;33219;47.410;9.730;2023-07-22T07:10:39;19.10;99.90
47482;DHT22;33219;47.410;9.730;2023-07-22T07:13:07;19.40;99.90
47482;DHT22;33219;47.410;9.730;2023-07-22T07:15:35;19.70;99.90
47482;DHT22;33219;47.410;9.730;2023-07-22T07:18:03;20.00;99.90
47482;DHT22;33219;47.410;9.730;2023-07-22T07:20:31;20.30;99.90
47482;DHT22;33219;47.410;9.730;2023-07-22T07:22:59;20.30;99.90
47482;DHT22;33219;47.410;9.730;2023-07-22T07:25:26;20.80;99.90
47482;DHT22;33219;47.410;9.730;2023-07-22T07:27:54;21.10;99.90
47482;DHT22;33219;47.410;9.730;2023-07-22T07:30:22;21.20;99.90
47482;DHT22;33219;47.410;9.730;2023-07-22T07:32:49;21.30;99.90
47482;DHT22;33219;47.410;9.730;2023-07-22T07:35:17;21.00;99.90
47482;DHT22;33219;47.410;9.730;2023-07-22T07:37:44;21.10;99.90
47482;DHT22;33219;47.410;9.730;2023-07-22T07:40:13;21.40;99.90
47482;DHT22;33219;47.410;9.730;2023-07-22T07:42:40;21.50;99.90
47482;DHT22;33219;47.410;9.730;2023-07-22T07:45:08;22.30;99.90
47482;DHT22;33219;47.410;9.730;2023-07-22T07:47:36;22.80;99.90
47482;DHT22;33219;47.410;9.730;2023-07-22T07:50:04;23.60;99.90
47482;DHT22;33219;47.410;9.730;2023-07-22T07:52:34;24.30;99.90
47482;DHT22;33219;47.410;9.730;2023-07-22T07:55:01;24.30;99.90
47482;DHT22;33219;47.410;9.730;2023-07-22T07:57:29;23.70;99.90
47482;DHT22;33219;47.410;9.730;2023-07-22T07:59:56;23.60;99.90
47482;DHT22;33219;47.410;9.730;2023-07-22T08:02:24;23.60;99.90
47482;DHT22;33219;47.410;9.730;2023-07-22T08:04:52;23.90;99.90
47482;DHT22;33219;47.410;9.730;2023-07-22T08:07:20;24.60;99.30
47482;DHT22;33219;47.410;9.730;2023-07-22T08:09:48;24.60;99.20
47482;DHT22;33219;47.410;9.730;2023-07-22T08:12:16;25.00;97.50
47482;DHT22;33219;47.410;9.730;2023-07-22T08:14:44;24.60;97.70
47482;DHT22;33219;47.410;9.730;2023-07-22T08:17:11;24.80;97.50
47482;DHT22;33219;47.410;9.730;2023-07-22T08:19:39;24.90;98.10
47482;DHT22;33219;47.410;9.730;2023-07-22T08:22:07;24.60;99.10
47482;DHT22;33219;47.410;9.730;2023-07-22T08:24:34;24.40;99.70
47482;DHT22;33219;47.410;9.730;2023-07-22T08:27:02;24.30;99.30
47482;DHT22;33219;47.410;9.730;2023-07-22T08:29:30;24.90;98.90
47482;DHT22;33219;47.410;9.730;2023-07-22T08:31:58;25.30;98.60
47482;DHT22;33219;47.410;9.730;2023-07-22T08:34:25;25.20;99.10
47482;DHT22;33219;47.410;9.730;2023-07-22T08:36:53;25.00;98.30
47482;DHT22;33219;47.410;9.730;2023-07-22T08:39:21;24.90;98.70
47482;DHT22;33219;47.410;9.730;2023-07-22T08:41:49;24.70;98.40
47482;DHT22;33219;47.410;9.730;2023-07-22T08:44:19;24.50;98.00
47482;DHT22;33219;47.410;9.730;2023-07-22T08:46:49;24.20;98.40
47482;DHT22;33219;47.410;9.730;2023-07-22T08:49:17;24.30;98.70
47482;DHT22;33219;47.410;9.730;2023-07-22T08:51:45;24.40;97.20
47482;DHT22;33219;47.410;9.730;2023-07-22T08:54:14;24.10;97.60
47482;DHT22;33219;47.410;9.730;2023-07-22T08:56:43;23.80;98.20
47482;DHT22;33219;47.410;9.730;2023-07-22T08:59:11;23.60;98.50
47482;DHT22;33219;47.410;9.730;2023-07-22T09:01:41;23.20;98.90
47482;DHT22;33219;47.410;9.730;2023-07-22T09:04:09;23.20;99.30
47482;DHT22;33219;47.410;9.730;2023-07-22T09:06:37;22.90;99.90
47482;DHT22;33219;47.410;9.730;2023-07-22T09:09:05;22.60;99.90
47482;DHT22;33219;47.410;9.730;2023-07-22T09:11:35;22.60;99.90
47482;DHT22;33219;47.410;9.730;2023-07-22T09:14:03;22.40;99.90
47482;DHT22;33219;47.410;9.730;2023-07-22T09:16:33;22.30;99.90
47482;DHT22;33219;47.410;9.730;2023-07-22T09:19:03;22.30;99.90
47482;DHT22;33219;47.410;9.730;2023-07-22T09:21:32;22.50;99.90
47482;DHT22;33219;47.410;9.730;2023-07-22T09:24:01;23.00;99.90
47482;DHT22;33219;47.410;9.730;2023-07-22T09:26:32;23.30;99.90
47482;DHT22;33219;47.410;9.730;2023-07-22T09:29:00;23.50;98.30
47482;DHT22;33219;47.410;9.730;2023-07-22T09:31:27;23.40;97.70
47482;DHT22;33219;47.410;9.730;2023-07-22T09:33:55;23.10;98.50
47482;DHT22;33219;47.410;9.730;2023-07-22T09:36:24;23.10;97.40
47482;DHT22;33219;47.410;9.730;2023-07-22T09:39:01;23.20;97.90
47482;DHT22;33219;47.410;9.730;2023-07-22T09:41:29;23.50;97.70
47482;DHT22;33219;47.410;9.730;2023-07-22T09:43:57;23.60;97.20
47482;DHT22;33219;47.410;9.730;2023-07-22T09:46:30;23.70;96.70
47482;DHT22;33219;47.410;9.730;2023-07-22T09:48:55;23.70;96.10
47482;DHT22;33219;47.410;9.730;2023-07-22T09:51:23;23.60;94.80
47482;DHT22;33219;47.410;9.730;2023-07-22T09:54:01;23.50;93.20
47482;DHT22;33219;47.410;9.730;2023-07-22T09:56:29;23.60;93.20
47482;DHT22;33219;47.410;9.730;2023-07-22T09:58:59;23.70;93.70
47482;DHT22;33219;47.410;9.730;2023-07-22T10:01:26;24.00;94.40
47482;DHT22;33219;47.410;9.730;2023-07-22T10:03:55;24.20;93.60
47482;DHT22;33219;47.410;9.730;2023-07-22T10:06:29;24.50;93.40
47482;DHT22;33219;47.410;9.730;2023-07-22T10:09:01;24.90;92.30
47482;DHT22;33219;47.410;9.730;2023-07-22T10:11:28;25.20;92.00
47482;DHT22;33219;47.410;9.730;2023-07-22T10:13:56;25.40;91.20
47482;DHT22;33219;47.410;9.730;2023-07-22T10:16:24;25.50;92.10
47482;DHT22;33219;47.410;9.730;2023-07-22T10:18:54;25.70;92.20
47482;DHT22;33219;47.410;9.730;2023-07-22T10:21:22;25.80;91.50
47482;DHT22;33219;47.410;9.730;2023-07-22T10:23:51;26.20;92.20
47482;DHT22;33219;47.410;9.730;2023-07-22T10:26:20;26.30;91.80
47482;DHT22;33219;47.410;9.730;2023-07-22T10:28:48;26.30;90.60
47482;DHT22;33219;47.410;9.730;2023-07-22T10:31:16;26.40;90.40
47482;DHT22;33219;47.410;9.730;2023-07-22T10:33:47;26.40;91.20
47482;DHT22;33219;47.410;9.730;2023-07-22T10:36:18;26.40;90.20
47482;DHT22;33219;47.410;9.730;2023-07-22T10:38:57;26.40;91.50
47482;DHT22;33219;47.410;9.730;2023-07-22T10:41:25;26.30;91.30
47482;DHT22;33219;47.410;9.730;2023-07-22T10:43:57;26.20;91.00
47482;DHT22;33219;47.410;9.730;2023-07-22T10:46:34;26.00;90.20
47482;DHT22;33219;47.410;9.730;2023-07-22T10:49:10;25.90;90.20
47482;DHT22;33219;47.410;9.730;2023-07-22T10:51:38;25.60;90.30
47482;DHT22;33219;47.410;9.730;2023-07-22T10:54:13;25.60;90.30
47482;DHT22;33219;47.410;9.730;2023-07-22T10:56:43;25.50;89.50
47482;DHT22;33219;47.410;9.730;2023-07-22T10:59:11;25.30;87.10
47482;DHT22;33219;47.410;9.730;2023-07-22T11:01:41;25.30;90.40
47482;DHT22;33219;47.410;9.730;2023-07-22T11:04:26;25.30;87.40
47482;DHT22;33219;47.410;9.730;2023-07-22T11:07:03;25.30;89.60
47482;DHT22;33219;47.410;9.730;2023-07-22T11:09:35;25.50;86.80
47482;DHT22;33219;47.410;9.730;2023-07-22T11:12:17;25.50;88.70
47482;DHT22;33219;47.410;9.730;2023-07-22T11:14:51;25.60;87.70
47482;DHT22;33219;47.410;9.730;2023-07-22T11:17:30;25.60;87.20
47482;DHT22;33219;47.410;9.730;2023-07-22T11:19:59;25.10;85.30
47482;DHT22;33219;47.410;9.730;2023-07-22T11:22:26;25.00;86.90
47482;DHT22;33219;47.410;9.730;2023-07-22T11:24:56;25.00;87.50
47482;DHT22;33219;47.410;9.730;2023-07-22T11:27:26;25.10;89.30
47482;DHT22;33219;47.410;9.730;2023-07-22T11:29:57;25.30;87.60
47482;DHT22;33219;47.410;9.730;2023-07-22T11:32:24;25.10;87.90
47482;DHT22;33219;47.410;9.730;2023-07-22T11:34:52;25.20;88.00
47482;DHT22;33219;47.410;9.730;2023-07-22T11:37:20;25.40;84.50
47482;DHT22;33219;47.410;9.730;2023-07-22T11:39:47;25.40;85.80
47482;DHT22;33219;47.410;9.730;2023-07-22T11:42:15;25.60;86.10
47482;DHT22;33219;47.410;9.730;2023-07-22T11:44:44;25.50;86.50
47482;DHT22;33219;47.410;9.730;2023-07-22T11:47:11;25.50;85.30
47482;DHT22;33219;47.410;9.730;2023-07-22T11:49:41;25.10;85.40
47482;DHT22;33219;47.410;9.730;2023-07-22T11:52:14;24.70;85.30
47482;DHT22;33219;47.410;9.730;2023-07-22T11:54:41;24.50;85.90
47482;DHT22;33219;47.410;9.730;2023-07-22T11:57:22;24.50;88.20
47482;DHT22;33219;47.410;9.730;2023-07-22T11:59:52;24.70;87.30
47482;DHT22;33219;47.410;9.730;2023-07-22T12:02:28;24.90;86.20
47482;DHT22;33219;47.410;9.730;2023-07-22T12:05:03;25.10;86.20
47482;DHT22;33219;47.410;9.730;2023-07-22T12:07:38;25.50;84.90
47482;DHT22;33219;47.410;9.730;2023-07-22T12:10:03;25.80;87.10
47482;DHT22;33219;47.410;9.730;2023-07-22T12:12:46;25.90;85.10
47482;DHT22;33219;47.410;9.730;2023-07-22T12:15:17;26.20;85.50
47482;DHT22;33219;47.410;9.730;2023-07-22T12:17:57;26.20;86.00
47482;DHT22;33219;47.410;9.730;2023-07-22T12:20:30;26.10;83.90
47482;DHT22;33219;47.410;9.730;2023-07-22T12:22:59;26.30;84.00
47482;DHT22;33219;47.410;9.730;2023-07-22T12:25:26;26.50;82.90
47482;DHT22;33219;47.410;9.730;2023-07-22T12:27:54;26.20;82.60
47482;DHT22;33219;47.410;9.730;2023-07-22T12:30:22;26.40;84.50
47482;DHT22;33219;47.410;9.730;2023-07-22T12:32:50;26.40;82.80
47482;DHT22;33219;47.410;9.730;2023-07-22T12:35:18;26.60;83.90
47482;DHT22;33219;47.410;9.730;2023-07-22T12:37:46;26.70;85.40
47482;DHT22;33219;47.410;9.730;2023-07-22T12:40:14;27.00;83.10
47482;DHT22;33219;47.410;9.730;2023-07-22T12:42:41;26.80;81.90
47482;DHT22;33219;47.410;9.730;2023-07-22T12:45:09;26.80;80.60
47482;DHT22;33219;47.410;9.730;2023-07-22T12:47:37;26.60;79.10
47482;DHT22;33219;47.410;9.730;2023-07-22T12:50:05;26.30;83.00
47482;DHT22;33219;47.410;9.730;2023-07-22T12:52:35;26.20;84.60
47482;DHT22;33219;47.410;9.730;2023-07-22T12:55:02;26.20;82.00
47482;DHT22;33219;47.410;9.730;2023-07-22T12:57:30;26.10;82.20
47482;DHT22;33219;47.410;9.730;2023-07-22T12:59:58;26.10;85.50
47482;DHT22;33219;47.410;9.730;2023-07-22T13:02:25;26.00;81.30
47482;DHT22;33219;47.410;9.730;2023-07-22T13:04:53;25.80;82.50
47482;DHT22;33219;47.410;9.730;2023-07-22T13:07:21;25.70;83.60
47482;DHT22;33219;47.410;9.730;2023-07-22T13:09:49;25.80;84.50
47482;DHT22;33219;47.410;9.730;2023-07-22T13:12:18;25.80;83.20
47482;DHT22;33219;47.410;9.730;2023-07-22T13:14:46;25.80;81.70
47482;DHT22;33219;47.410;9.730;2023-07-22T13:17:14;25.70;82.20
47482;DHT22;33219;47.410;9.730;2023-07-22T13:19:41;25.50;83.00
47482;DHT22;33219;47.410;9.730;2023-07-22T13:22:09;25.50;83.40
47482;DHT22;33219;47.410;9.730;2023-07-22T13:24:36;25.50;83.60
47482;DHT22;33219;47.410;9.730;2023-07-22T13:27:04;25.50;83.00
47482;DHT22;33219;47.410;9.730;2023-07-22T13:29:32;25.50;83.10
47482;DHT22;33219;47.410;9.730;2023-07-22T13:32:00;25.40;81.70
47482;DHT22;33219;47.410;9.730;2023-07-22T13:34:27;25.30;84.30
47482;DHT22;33219;47.410;9.730;2023-07-22T13:36:55;25.30;84.40
47482;DHT22;33219;47.410;9.730;2023-07-22T13:39:23;25.30;85.90
47482;DHT22;33219;47.410;9.730;2023-07-22T13:41:50;25.30;83.00
47482;DHT22;33219;47.410;9.730;2023-07-22T13:44:18;25.40;84.90
47482;DHT22;33219;47.410;9.730;2023-07-22T13:46:45;25.30;84.90
47482;DHT22;33219;47.410;9.730;2023-07-22T13:49:13;25.30;83.10
47482;DHT22;33219;47.410;9.730;2023-07-22T13:51:41;25.30;85.50
47482;DHT22;33219;47.410;9.730;2023-07-22T13:54:09;25.10;83.90
47482;DHT22;33219;47.410;9.730;2023-07-22T13:56:37;25.10;84.90
47482;DHT22;33219;47.410;9.730;2023-07-22T13:59:04;25.10;84.70
47482;DHT22;33219;47.410;9.730;2023-07-22T14:01:32;25.30;86.50
47482;DHT22;33219;47.410;9.730;2023-07-22T14:04:00;25.40;84.40
47482;DHT22;33219;47.410;9.730;2023-07-22T14:06:27;25.30;85.30
47482;DHT22;33219;47.410;9.730;2023-07-22T14:08:55;25.40;85.60
47482;DHT22;33219;47.410;9.730;2023-07-22T14:11:23;25.40;83.60
47482;DHT22;33219;47.410;9.730;2023-07-22T14:13:50;25.40;84.10
47482;DHT22;33219;47.410;9.730;2023-07-22T14:16:19;25.40;84.20
47482;DHT22;33219;47.410;9.730;2023-07-22T14:18:47;25.50;83.60
47482;DHT22;33219;47.410;9.730;2023-07-22T14:21:15;25.40;85.60
47482;DHT22;33219;47.410;9.730;2023-07-22T14:23:42;25.30;83.30
47482;DHT22;33219;47.410;9.730;2023-07-22T14:26:10;25.20;84.90
47482;DHT22;33219;47.410;9.730;2023-07-22T14:28:38;25.20;83.60
47482;DHT22;33219;47.410;9.730;2023-07-22T14:31:05;25.30;86.50
47482;DHT22;33219;47.410;9.730;2023-07-22T14:33:33;25.30;86.90
47482;DHT22;33219;47.410;9.730;2023-07-22T14:36:01;25.10;82.40
47482;DHT22;33219;47.410;9.730;2023-07-22T14:38:30;25.00;85.50
47482;DHT22;33219;47.410;9.730;2023-07-22T14:40:58;24.90;84.00
47482;DHT22;33219;47.410;9.730;2023-07-22T14:43:26;24.80;84.30
47482;DHT22;33219;47.410;9.730;2023-07-22T14:45:54;24.90;85.20
47482;DHT22;33219;47.410;9.730;2023-07-22T14:48:22;24.80;84.20
47482;DHT22;33219;47.410;9.730;2023-07-22T14:50:50;24.70;82.30
47482;DHT22;33219;47.410;9.730;2023-07-22T14:53:17;24.70;83.00
47482;DHT22;33219;47.410;9.730;2023-07-22T14:55:45;24.60;82.70
47482;DHT22;33219;47.410;9.730;2023-07-22T14:58:13;24.60;84.20
47482;DHT22;33219;47.410;9.730;2023-07-22T15:00:41;24.70;86.90
47482;DHT22;33219;47.410;9.730;2023-07-22T15:03:09;24.80;88.40
47482;DHT22;33219;47.410;9.730;2023-07-22T15:05:37;24.80;86.20
47482;DHT22;33219;47.410;9.730;2023-07-22T15:08:04;24.80;88.60
47482;DHT22;33219;47.410;9.730;2023-07-22T15:10:32;24.80;84.90
47482;DHT22;33219;47.410;9.730;2023-07-22T15:13:00;24.90;86.10
47482;DHT22;33219;47.410;9.730;2023-07-22T15:15:28;24.90;84.30
47482;DHT22;33219;47.410;9.730;2023-07-22T15:17:55;24.90;84.50
47482;DHT22;33219;47.410;9.730;2023-07-22T15:20:23;24.90;87.90
47482;DHT22;33219;47.410;9.730;2023-07-22T15:22:50;24.80;86.00
47482;DHT22;33219;47.410;9.730;2023-07-22T15:25:18;24.70;84.90
47482;DHT22;33219;47.410;9.730;2023-07-22T15:27:45;24.70;83.40
47482;DHT22;33219;47.410;9.730;2023-07-22T15:30:13;24.60;83.20
47482;DHT22;33219;47.410;9.730;2023-07-22T15:32:40;24.60;83.50
47482;DHT22;33219;47.410;9.730;2023-07-22T15:35:09;24.50;85.20
47482;DHT22;33219;47.410;9.730;2023-07-22T15:37:36;24.50;88.20